Estación de Longaví Norte

Ultimos registro cada 15 minutos 34
Estación Fecha / Hora Temperatura Humedad Lluvia Velocidad Dirección Radiación Presion
34 Longaví Norte 31-08-2026 08:15 9,7 95,7 0 0 74 44,4 1006,3
33 Longaví Norte 31-08-2026 08:00 9,3 95,4 0 0 74 34,4 1005,9
32 Longaví Norte 31-08-2026 07:45 9 96 0 0,3 72 26,9 1005,7
31 Longaví Norte 31-08-2026 07:30 8,6 96,8 0 0,3 67 25,6 1005,4
30 Longaví Norte 31-08-2026 07:15 8,4 97,1 0 0 70 3,1 1005,2
29 Longaví Norte 31-08-2026 07:00 8,8 97,5 0 0,3 72 0,6 1005
28 Longaví Norte 31-08-2026 06:45 8,4 98,6 0 0 52 0,6 1005
27 Longaví Norte 31-08-2026 06:30 8,5 98,6 0 0 51 0,6 1004,7
26 Longaví Norte 31-08-2026 06:15 8,5 99,6 0 0 41 0,6 1004,6
25 Longaví Norte 31-08-2026 06:00 8,4 99,9 0 0,3 35 0,6 1004,4
24 Longaví Norte 31-08-2026 05:45 7,8 100 0 0 265 0,6 1004,2
23 Longaví Norte 31-08-2026 05:30 7,5 100 0 0 256 0,6 1004
22 Longaví Norte 31-08-2026 05:15 7,4 100 0 0 256 0,6 1003,8
21 Longaví Norte 31-08-2026 05:00 7 100 0 0 256 0,6 1003,6
20 Longaví Norte 31-08-2026 04:45 6,7 99,9 0 0 256 0,6 1003,5
19 Longaví Norte 31-08-2026 04:30 7,1 99,9 0 0 256 0,6 1003,5
18 Longaví Norte 31-08-2026 04:15 6,6 99,7 0 0 256 0,6 1003,3
17 Longaví Norte 31-08-2026 04:00 6,7 99,5 0 0 256 0,6 1003,4
16 Longaví Norte 31-08-2026 03:45 6,9 99 0 0 256 0,6 1003,3
15 Longaví Norte 31-08-2026 03:30 7,1 99,2 0 0 256 0,6 1003,2
14 Longaví Norte 31-08-2026 03:15 7,5 98,9 0 0 256 0,6 1003,2
13 Longaví Norte 31-08-2026 03:00 7,8 98,7 0 0 256 0,6 1003,2
12 Longaví Norte 31-08-2026 02:45 7,8 98,4 0 0 256 0,6 1003,3
11 Longaví Norte 31-08-2026 02:30 7,8 98,4 0 0 257 0,6 1003,3
10 Longaví Norte 31-08-2026 02:15 7,7 99,1 0 0,3 275 0,6 1003,4
9 Longaví Norte 31-08-2026 02:00 7,2 99,1 0 0 279 0,6 1003
8 Longaví Norte 31-08-2026 01:45 7 99,1 0 0 279 0,6 1002,9
7 Longaví Norte 31-08-2026 01:30 7 99,1 0 0 279 0,6 1002,8
6 Longaví Norte 31-08-2026 01:15 6,9 99,1 0 0 279 0,6 1002,8
5 Longaví Norte 31-08-2026 01:00 7,2 98,7 0 0 279 0,6 1002,8
4 Longaví Norte 31-08-2026 00:45 7,4 98,9 0 0 279 0,6 1002,7
3 Longaví Norte 31-08-2026 00:30 7,2 98,8 0 0 279 0,6 1002,8
2 Longaví Norte 31-08-2026 00:15 7,5 98,3 0 0 279 0,6 1002,6
1 Longaví Norte 31-08-2026 00:00 7,6 97,9 0 0 279 0,6 1002,5